LTAC/ESB METAR and TAF weather

Enter ICAO airport designator
Station Type Date Time Source
LTAC METAR 2021/09/25 12:50 UTC NOAA

LTAC 251250Z 34006KT 290V020 9999 SCT040 BKN100 17/05 Q1022 NOSIG


Station Type Date Time Source
LTAC Decoded METAR 2021/09/25 12:50 UTC NOAA

Ankara / Esenboga, Turkey (LTAC) 40-07N 032-59E 949M
Sep 25, 2021 - 08:50 AM EDT / 2021.09.25 1250 UTC
Wind: from the NNW (340 degrees) at 7 MPH (6 KT) (direction variable):0
Visibility: greater than 7 mile(s):0
Sky conditions: mostly cloudy
Temperature: 62 F (17 C)
Dew Point: 41 F (5 C)
Relative Humidity: 45%
Pressure (altimeter): 30.18 in. Hg (1022 hPa)
ob: LTAC 251250Z 34006KT 290V020 9999 SCT040 BKN100 17/05 Q1022 NOSIG
cycle: 13

Station Type Date Time Source
LTAC TAF 2021/09/25 12:03 UTC NOAA

TAF TAF LTAC 251040Z 2512/2612 VRB02KT 9999 SCT040 BKN100
TEMPO 2512/2516 32012KT
BECMG 2516/2519 CAVOK
BECMG 2607/2609 FEW040

Example: see airport list